Time;durP1;ratioP1;P1;durP2;ratioP2;P2;SDS_P1;SDS_P2;PMS_P1;PMS_P2;Temp;Humidity;BMP_temperature;BMP_pressure;BME280_temperature;BME280_humidity;BME280_pressure;Samples;Min_cycle;Max_cycle;Signal;HPM_P1;HPM_P2
2023/08/21 00:00:48;;;;;;;2.65;0.70;;;21.20;81.70;;;;;;5033646;28;20410;-86
2023/08/21 00:03:13;;;;;;;6.80;1.20;;;21.20;82.00;;;;;;5002437;28;20046;-86
2023/08/21 00:05:39;;;;;;;3.47;1.08;;;21.10;82.20;;;;;;5035381;28;20443;-86
2023/08/21 00:08:05;;;;;;;2.85;0.80;;;21.10;82.50;;;;;;5018566;28;20029;-86
2023/08/21 00:10:31;;;;;;;3.70;0.70;;;21.00;82.80;;;;;;5018578;28;20029;-86
2023/08/21 00:12:57;;;;;;;3.45;0.82;;;21.00;83.00;;;;;;5018674;28;20061;-86
2023/08/21 00:15:22;;;;;;;4.72;0.90;;;21.00;83.20;;;;;;5018554;28;20058;-87
2023/08/21 00:17:48;;;;;;;2.20;0.82;;;21.00;83.50;;;;;;5018515;28;20040;-86
2023/08/21 00:20:14;;;;;;;3.78;0.85;;;21.00;83.60;;;;;;5018336;28;20064;-86
2023/08/21 00:22:39;;;;;;;4.65;0.95;;;21.00;83.90;;;;;;5036266;28;20029;-86
2023/08/21 00:25:05;;;;;;;4.30;0.70;;;21.00;84.10;;;;;;5002090;28;20029;-86
2023/08/21 00:27:31;;;;;;;3.13;0.80;;;21.00;84.20;;;;;;5018523;28;20072;-86
2023/08/21 00:29:58;;;;;;;4.05;1.05;;;21.00;84.30;;;;;;5018129;28;20034;-86
2023/08/21 00:32:24;;;;;;;3.58;0.88;;;21.00;84.50;;;;;;5034577;28;20037;-86
2023/08/21 00:34:49;;;;;;;2.95;0.70;;;20.90;84.60;;;;;;5018057;28;20523;-86
2023/08/21 00:37:15;;;;;;;4.30;1.08;;;20.90;84.70;;;;;;5017978;28;20075;-86
2023/08/21 00:39:40;;;;;;;4.55;1.00;;;21.00;84.80;;;;;;5001781;28;20080;-86
2023/08/21 00:42:07;;;;;;;5.20;0.82;;;20.90;84.80;;;;;;5017980;28;20033;-86
2023/08/21 00:44:32;;;;;;;5.20;0.90;;;20.90;84.90;;;;;;5034439;28;20132;-85
2023/08/21 00:46:58;;;;;;;5.03;0.80;;;20.90;84.90;;;;;;5001902;28;20080;-86
2023/08/21 00:49:25;;;;;;;4.18;0.80;;;20.90;85.00;;;;;;5035626;28;20489;-85
2023/08/21 00:51:52;;;;;;;4.82;0.80;;;20.90;85.20;;;;;;5034102;28;20124;-86
2023/08/21 00:54:18;;;;;;;4.47;0.80;;;20.90;85.30;;;;;;5035348;28;20030;-86
2023/08/21 00:56:44;;;;;;;4.72;0.70;;;20.90;85.30;;;;;;5017800;28;20022;-86
2023/08/21 00:59:10;;;;;;;2.83;0.65;;;20.80;85.40;;;;;;5017869;28;20357;-86
2023/08/21 01:01:37;;;;;;;6.65;0.95;;;20.80;85.50;;;;;;5017647;28;20060;-86
2023/08/21 01:04:03;;;;;;;4.80;0.93;;;20.80;85.70;;;;;;5017542;28;20031;-86
2023/08/21 01:06:29;;;;;;;3.92;0.80;;;20.80;85.80;;;;;;5035296;28;20025;-86
2023/08/21 01:09:34;;;;;;;3.72;0.70;;;20.70;85.90;;;;;;5033769;28;20025;-86
2023/08/21 01:12:13;;;;;;;3.20;1.00;;;20.70;86.30;;;;;;5004197;28;20041;-79
2023/08/21 01:14:59;;;;;;;3.88;0.70;;;20.60;86.30;;;;;;5035204;28;20038;-78
2023/08/21 01:17:26;;;;;;;2.83;0.82;;;20.60;86.40;;;;;;5035018;28;20026;-78
2023/08/21 01:19:53;;;;;;;4.95;1.02;;;20.60;86.50;;;;;;5033779;28;20061;-78
2023/08/21 01:22:19;;;;;;;4.72;0.98;;;20.50;86.70;;;;;;5035174;28;20104;-78
2023/08/21 01:24:45;;;;;;;4.38;1.00;;;20.50;86.80;;;;;;5017349;28;20571;-78
2023/08/21 01:27:13;;;;;;;5.38;1.00;;;20.40;86.90;;;;;;5033530;28;20018;-78
2023/08/21 01:29:39;;;;;;;3.15;1.10;;;20.40;87.20;;;;;;5034816;28;20021;-78
2023/08/21 01:32:24;;;;;;;4.53;0.80;;;20.40;87.40;;;;;;5017112;28;20036;-78
2023/08/21 01:34:54;;;;;;;3.65;1.02;;;20.30;87.80;;;;;;5034776;28;20355;-79
2023/08/21 01:37:21;;;;;;;4.28;0.70;;;20.30;88.00;;;;;;5033272;28;20466;-79
2023/08/21 01:39:46;;;;;;;5.57;1.10;;;20.30;88.40;;;;;;5000550;28;20026;-78
2023/08/21 01:42:12;;;;;;;3.95;0.80;;;20.30;88.60;;;;;;5033357;28;20022;-79
2023/08/21 01:44:38;;;;;;;4.47;0.95;;;20.20;88.60;;;;;;5000597;28;20029;-79
2023/08/21 01:47:03;;;;;;;6.00;1.00;;;20.20;88.50;;;;;;5016803;28;20370;-85
2023/08/21 01:49:29;;;;;;;3.03;0.82;;;20.20;88.60;;;;;;5016741;28;20037;-86
2023/08/21 01:51:55;;;;;;;4.57;0.93;;;20.10;88.60;;;;;;5033281;28;20037;-86
2023/08/21 01:54:20;;;;;;;3.30;0.70;;;20.10;88.70;;;;;;5016566;28;20552;-85
2023/08/21 01:56:46;;;;;;;7.70;0.95;;;20.10;88.90;;;;;;5032905;28;20041;-86
2023/08/21 01:59:11;;;;;;;3.13;0.80;;;20.00;88.90;;;;;;5016955;28;20391;-86
2023/08/21 02:01:37;;;;;;;3.47;0.63;;;20.10;89.10;;;;;;5013042;28;20049;-85
2023/08/21 02:04:03;;;;;;;2.75;0.70;;;20.00;89.20;;;;;;4996820;28;20030;-85
2023/08/21 02:06:28;;;;;;;3.75;0.80;;;20.00;89.30;;;;;;5014345;28;20045;-86
2023/08/21 02:08:54;;;;;;;4.05;0.75;;;20.00;89.40;;;;;;4996752;28;20112;-86
2023/08/21 02:11:20;;;;;;;2.72;0.57;;;20.00;89.50;;;;;;5013064;28;20168;-86
2023/08/21 02:13:45;;;;;;;3.17;0.75;;;20.00;89.70;;;;;;5014237;28;20506;-86
2023/08/21 02:16:11;;;;;;;4.05;0.63;;;19.90;89.80;;;;;;5013149;28;20061;-86
2023/08/21 02:18:37;;;;;;;7.00;1.10;;;19.90;90.00;;;;;;4996717;28;20374;-86
2023/08/21 02:21:02;;;;;;;4.45;0.80;;;19.90;90.00;;;;;;4996715;28;20033;-86
2023/08/21 02:23:29;;;;;;;3.70;0.70;;;19.90;90.10;;;;;;4996074;28;20030;-86
2023/08/21 02:25:55;;;;;;;3.72;0.80;;;19.90;90.10;;;;;;4996928;28;20033;-86
2023/08/21 02:28:20;;;;;;;4.38;0.80;;;19.90;90.10;;;;;;5012900;28;20382;-86
2023/08/21 02:30:46;;;;;;;5.25;0.60;;;20.00;90.10;;;;;;5014189;28;20030;-86
2023/08/21 02:33:12;;;;;;;2.63;0.70;;;20.00;90.10;;;;;;5013966;28;20034;-86
2023/08/21 02:35:38;;;;;;;5.65;1.05;;;20.00;90.10;;;;;;5014099;28;20026;-86
2023/08/21 02:38:04;;;;;;;3.92;0.82;;;20.00;90.10;;;;;;5013780;28;20393;-86
2023/08/21 02:40:29;;;;;;;4.93;0.80;;;19.90;90.00;;;;;;5012632;28;20029;-86
2023/08/21 02:42:55;;;;;;;3.75;0.95;;;19.90;90.10;;;;;;5012982;28;20390;-85
2023/08/21 02:45:20;;;;;;;8.48;1.33;;;19.90;90.10;;;;;;5012601;28;20041;-86
2023/08/21 02:47:46;;;;;;;3.55;0.88;;;19.90;90.10;;;;;;5013780;28;20033;-85
2023/08/21 02:50:11;;;;;;;2.60;0.68;;;19.90;90.10;;;;;;5013672;28;20535;-85
2023/08/21 02:52:38;;;;;;;5.43;0.88;;;19.90;90.20;;;;;;5012536;28;20034;-86
2023/08/21 02:55:04;;;;;;;1.88;0.52;;;19.90;90.30;;;;;;5012359;28;20018;-85
2023/08/21 02:57:42;;;;;;;3.13;0.73;;;19.90;90.30;;;;;;5070197;27;1286415;-84
2023/08/21 03:00:08;;;;;;;4.03;0.80;;;19.90;90.30;;;;;;5093679;28;20027;-84
2023/08/21 03:02:34;;;;;;;2.30;0.60;;;19.90;90.30;;;;;;5076859;28;20077;-84
2023/08/21 03:05:00;;;;;;;3.17;0.88;;;19.80;90.30;;;;;;5093644;28;20114;-84
2023/08/21 03:07:25;;;;;;;4.15;0.57;;;19.90;90.40;;;;;;5111585;28;20034;-84
2023/08/21 03:09:51;;;;;;;6.65;1.20;;;19.90;90.40;;;;;;5094464;28;20532;-84
2023/08/21 03:12:17;;;;;;;3.40;1.27;;;19.90;90.40;;;;;;5112099;28;20107;-84
2023/08/21 03:14:43;;;;;;;2.13;0.70;;;19.90;90.50;;;;;;5112318;28;20030;-85
2023/08/21 03:17:08;;;;;;;6.18;0.90;;;19.90;90.50;;;;;;5094109;28;20050;-85
2023/08/21 03:19:34;;;;;;;3.03;0.65;;;19.90;90.60;;;;;;5077679;28;20508;-84
2023/08/21 03:22:00;;;;;;;3.45;0.70;;;19.90;90.70;;;;;;5076956;28;20039;-84
2023/08/21 03:24:25;;;;;;;5.20;0.80;;;19.90;90.70;;;;;;5111461;28;20438;-85
2023/08/21 03:26:51;;;;;;;3.08;0.80;;;19.90;90.80;;;;;;5076248;28;20023;-86
2023/08/21 03:29:17;;;;;;;4.82;0.80;;;19.90;90.80;;;;;;5076084;28;20024;-85
2023/08/21 03:31:42;;;;;;;5.07;0.90;;;19.90;90.80;;;;;;5076296;28;20039;-86
2023/08/21 03:34:08;;;;;;;3.97;0.82;;;19.90;90.70;;;;;;5111138;28;20032;-86
2023/08/21 03:36:36;;;;;;;6.05;1.08;;;19.90;90.80;;;;;;5111037;28;20039;-86
2023/08/21 03:39:03;;;;;;;4.18;0.93;;;19.90;90.70;;;;;;5111018;28;20407;-85
2023/08/21 03:41:29;;;;;;;6.63;1.00;;;19.80;90.70;;;;;;5092943;28;20031;-85
2023/08/21 03:43:55;;;;;;;3.85;0.80;;;19.80;90.70;;;;;;5092573;28;20028;-87
2023/08/21 03:46:20;;;;;;;6.70;1.33;;;19.70;90.70;;;;;;5097939;28;20600;-87
2023/08/21 03:48:46;;;;;;;4.07;0.85;;;19.70;90.70;;;;;;5072481;28;20024;-86
2023/08/21 03:51:11;;;;;;;4.53;0.98;;;19.70;90.70;;;;;;5037406;28;20028;-87
2023/08/21 03:53:37;;;;;;;3.38;0.80;;;19.70;90.70;;;;;;5071276;28;20388;-85
2023/08/21 03:56:03;;;;;;;4.53;0.90;;;19.60;90.70;;;;;;5038420;28;20144;-86
2023/08/21 03:58:28;;;;;;;3.55;0.70;;;19.60;90.80;;;;;;5055424;28;20129;-86
2023/08/21 04:00:54;;;;;;;3.88;0.75;;;19.50;90.80;;;;;;5055174;28;20036;-87
2023/08/21 04:03:20;;;;;;;4.50;0.75;;;19.50;90.90;;;;;;5039137;28;20150;-87
2023/08/21 04:05:47;;;;;;;1.55;0.60;;;19.50;90.90;;;;;;5072257;28;20054;-87
2023/08/21 04:08:12;;;;;;;3.58;0.80;;;19.50;91.00;;;;;;5063880;28;20032;-87
2023/08/21 04:10:41;;;;;;;2.78;0.70;;;19.50;91.10;;;;;;5058926;28;20033;-87
2023/08/21 04:13:07;;;;;;;4.72;1.02;;;19.50;91.10;;;;;;5058964;28;20036;-87
2023/08/21 04:15:35;;;;;;;5.53;0.70;;;19.50;91.20;;;;;;5041608;28;20028;-87
2023/08/21 04:18:00;;;;;;;6.13;1.27;;;19.50;91.20;;;;;;5059010;28;20029;-87
2023/08/21 04:20:26;;;;;;;4.07;0.68;;;19.50;91.30;;;;;;5059569;28;20070;-87
2023/08/21 04:22:52;;;;;;;5.50;1.10;;;19.50;91.60;;;;;;5060408;28;20028;-87
2023/08/21 04:25:18;;;;;;;3.28;0.85;;;19.50;91.40;;;;;;5094441;28;20031;-86
2023/08/21 04:27:44;;;;;;;3.25;0.90;;;19.50;91.50;;;;;;5051276;28;20033;-87
2023/08/21 04:30:10;;;;;;;3.13;0.75;;;19.50;91.50;;;;;;5076122;28;20375;-86
2023/08/21 04:32:36;;;;;;;2.28;0.63;;;19.50;91.60;;;;;;5040391;28;20125;-86
2023/08/21 04:35:01;;;;;;;4.07;0.65;;;19.50;91.60;;;;;;5056835;28;20025;-85
2023/08/21 04:37:27;;;;;;;3.17;0.70;;;19.50;91.60;;;;;;5057848;28;20493;-86
2023/08/21 04:39:54;;;;;;;3.17;0.77;;;19.50;91.70;;;;;;5076000;28;20078;-86
2023/08/21 04:42:21;;;;;;;2.17;0.60;;;19.50;91.70;;;;;;5075871;28;20074;-86
2023/08/21 04:44:46;;;;;;;5.10;0.80;;;19.50;92.10;;;;;;5075893;28;20028;-86
2023/08/21 04:47:26;;;;;;;3.70;0.70;;;19.50;91.90;;;;;;5075725;28;20029;-85
2023/08/21 04:49:52;;;;;;;3.95;0.70;;;19.50;91.90;;;;;;5057935;28;20500;-87
2023/08/21 04:52:19;;;;;;;3.97;0.60;;;19.40;91.90;;;;;;5057799;28;20545;-87
2023/08/21 04:54:45;;;;;;;5.68;1.15;;;19.40;92.20;;;;;;5075602;28;20028;-85
2023/08/21 04:57:10;;;;;;;3.63;0.70;;;19.40;91.90;;;;;;5040771;28;20405;-87
2023/08/21 04:59:36;;;;;;;6.18;0.68;;;19.40;91.90;;;;;;5057740;28;20041;-86
2023/08/21 05:02:02;;;;;;;5.60;0.68;;;19.40;92.00;;;;;;5057498;28;20028;-87
2023/08/21 05:04:28;;;;;;;3.50;0.73;;;19.40;92.00;;;;;;5039321;28;20522;-86
2023/08/21 05:06:54;;;;;;;3.40;0.73;;;19.50;92.00;;;;;;5056892;28;20025;-85
2023/08/21 05:09:19;;;;;;;4.07;0.80;;;19.50;91.90;;;;;;5075521;28;20434;-85
2023/08/21 05:11:45;;;;;;;3.78;0.73;;;19.50;91.90;;;;;;5056441;28;20077;-85
2023/08/21 05:14:10;;;;;;;3.95;0.85;;;19.50;91.90;;;;;;5023391;28;20070;-84
2023/08/21 05:16:36;;;;;;;4.45;0.70;;;19.50;91.90;;;;;;5056971;28;20055;-85
2023/08/21 05:19:01;;;;;;;4.90;0.70;;;19.50;91.90;;;;;;5059007;28;20032;-84
2023/08/21 05:21:27;;;;;;;6.82;0.70;;;19.50;91.90;;;;;;5074913;28;20473;-85
2023/08/21 05:23:53;;;;;;;4.60;1.00;;;19.50;91.90;;;;;;5041154;28;20031;-86
2023/08/21 05:26:19;;;;;;;6.00;0.77;;;19.60;91.90;;;;;;5023436;28;20534;-84
2023/08/21 05:28:45;;;;;;;5.63;0.80;;;19.60;92.00;;;;;;5056875;28;20064;-85
2023/08/21 05:31:11;;;;;;;2.47;0.70;;;19.60;92.10;;;;;;5074465;28;20052;-84
2023/08/21 05:33:37;;;;;;;4.45;0.73;;;19.60;92.00;;;;;;5057129;28;20510;-84
2023/08/21 05:36:03;;;;;;;2.97;0.75;;;19.70;92.00;;;;;;5056442;28;20060;-84
2023/08/21 05:38:28;;;;;;;5.43;0.80;;;19.70;92.00;;;;;;5074861;28;20032;-84
2023/08/21 05:40:54;;;;;;;3.33;1.08;;;19.80;92.00;;;;;;5039813;28;20411;-84
2023/08/21 05:43:20;;;;;;;4.55;1.15;;;19.80;91.90;;;;;;5023009;28;20039;-83
2023/08/21 05:45:45;;;;;;;4.88;1.08;;;19.80;91.80;;;;;;5039145;28;20477;-84
2023/08/21 05:48:11;;;;;;;2.63;0.75;;;19.80;91.70;;;;;;5056398;28;20058;-84
2023/08/21 05:50:37;;;;;;;3.42;0.80;;;19.80;91.60;;;;;;5073931;28;20036;-84
2023/08/21 05:53:06;;;;;;;4.38;0.70;;;19.80;91.60;;;;;;5056789;28;20141;-85
2023/08/21 05:55:32;;;;;;;2.58;0.80;;;19.80;91.70;;;;;;5023477;28;20392;-85
2023/08/21 05:57:58;;;;;;;4.53;1.25;;;19.80;91.70;;;;;;5039553;28;20068;-85
2023/08/21 06:00:24;;;;;;;3.75;0.80;;;19.90;91.80;;;;;;5073822;28;20865;-84
2023/08/21 06:02:49;;;;;;;3.60;0.80;;;19.90;91.80;;;;;;5073727;28;20068;-85
2023/08/21 06:05:15;;;;;;;3.65;0.80;;;20.00;91.90;;;;;;5056089;28;20468;-84
2023/08/21 06:07:41;;;;;;;5.22;1.13;;;20.00;92.00;;;;;;5039420;28;20024;-85
2023/08/21 06:10:14;;;;;;;5.43;0.98;;;20.10;92.10;;;;;;5074211;28;20024;-85
2023/08/21 06:12:41;;;;;;;4.50;0.90;;;20.20;92.00;;;;;;5055358;28;20021;-84
2023/08/21 06:15:10;;;;;;;2.95;0.73;;;20.20;92.00;;;;;;5039335;28;20082;-85
2023/08/21 06:17:39;;;;;;;3.42;0.85;;;20.30;91.90;;;;;;5056580;28;20037;-85
2023/08/21 06:20:08;;;;;;;7.25;1.23;;;20.40;91.90;;;;;;5055990;28;20472;-84
2023/08/21 06:22:34;;;;;;;5.80;0.82;;;20.40;91.80;;;;;;5055880;28;20063;-84
2023/08/21 06:24:59;;;;;;;4.45;0.90;;;20.40;91.80;;;;;;5057660;28;20051;-84
2023/08/21 06:27:25;;;;;;;3.83;1.00;;;20.50;91.80;;;;;;5059022;28;20070;-84
2023/08/21 06:29:51;;;;;;;6.15;1.10;;;20.60;91.80;;;;;;5072055;28;20440;-84
2023/08/21 06:32:16;;;;;;;4.95;0.90;;;20.70;91.70;;;;;;5066874;28;20492;-84
2023/08/21 06:34:42;;;;;;;4.03;0.70;;;20.70;91.50;;;;;;5083367;28;20038;-84
2023/08/21 06:37:08;;;;;;;4.20;0.93;;;20.70;91.40;;;;;;5057995;28;20114;-84
2023/08/21 06:39:34;;;;;;;2.55;0.80;;;20.70;91.30;;;;;;5042672;28;20489;-84
2023/08/21 06:42:00;;;;;;;4.43;0.80;;;20.70;91.20;;;;;;5072926;28;20107;-84
2023/08/21 06:44:26;;;;;;;4.68;0.88;;;20.70;91.20;;;;;;5074046;28;20507;-84
2023/08/21 06:46:52;;;;;;;4.85;0.73;;;20.80;91.30;;;;;;5055630;28;20385;-84
2023/08/21 06:49:17;;;;;;;4.47;0.80;;;20.80;91.20;;;;;;5072777;28;20033;-84
2023/08/21 06:51:43;;;;;;;6.18;1.35;;;20.80;91.10;;;;;;5054958;28;20024;-84
2023/08/21 06:54:09;;;;;;;4.22;0.98;;;20.80;90.90;;;;;;5059362;28;20564;-85
2023/08/21 06:56:35;;;;;;;10.25;1.15;;;20.90;90.80;;;;;;5075172;28;20047;-84
2023/08/21 06:59:01;;;;;;;7.30;1.00;;;20.90;90.70;;;;;;5058996;28;20146;-84
2023/08/21 07:01:27;;;;;;;7.55;1.08;;;20.90;90.60;;;;;;5075877;28;20035;-84
2023/08/21 07:03:53;;;;;;;6.07;1.15;;;21.00;90.60;;;;;;5094428;28;20024;-84
2023/08/21 07:06:19;;;;;;;4.45;1.10;;;21.00;90.50;;;;;;5075368;28;20032;-84
2023/08/21 07:08:45;;;;;;;4.93;0.80;;;21.00;90.40;;;;;;5058581;28;20361;-83
2023/08/21 07:11:12;;;;;;;7.15;1.00;;;21.10;90.30;;;;;;5058326;28;20394;-84
2023/08/21 07:13:38;;;;;;;4.95;0.80;;;21.00;90.30;;;;;;5093115;28;20032;-84
2023/08/21 07:16:05;;;;;;;5.22;1.10;;;21.10;90.20;;;;;;5093185;28;20471;-85
2023/08/21 07:18:34;;;;;;;6.00;0.73;;;21.20;90.10;;;;;;5076181;28;20033;-84
2023/08/21 07:21:01;;;;;;;6.25;1.00;;;21.20;90.00;;;;;;5075189;28;20107;-84
2023/08/21 07:23:26;;;;;;;4.38;0.93;;;21.30;90.00;;;;;;5075147;28;20120;-84
2023/08/21 07:25:52;;;;;;;7.25;1.05;;;21.30;89.80;;;;;;5075157;28;20471;-85
2023/08/21 07:28:17;;;;;;;7.30;0.90;;;21.40;89.70;;;;;;5041837;28;20076;-84
2023/08/21 07:30:43;;;;;;;4.45;0.98;;;21.50;89.70;;;;;;5093427;28;20036;-85
2023/08/21 07:33:09;;;;;;;6.47;1.10;;;21.70;89.50;;;;;;5058287;28;20035;-84
2023/08/21 07:35:35;;;;;;;4.57;1.00;;;21.80;89.10;;;;;;5074748;28;20503;-85
2023/08/21 07:38:01;;;;;;;3.85;0.80;;;21.90;88.70;;;;;;5041866;28;20033;-84
2023/08/21 07:40:27;;;;;;;6.70;0.80;;;22.00;88.40;;;;;;5075125;28;20114;-84
2023/08/21 07:42:53;;;;;;;6.55;0.85;;;22.10;87.90;;;;;;5093826;28;20475;-85
2023/08/21 07:45:18;;;;;;;7.88;0.70;;;22.20;87.50;;;;;;5097237;28;20067;-86
2023/08/21 07:47:44;;;;;;;3.20;0.63;;;22.20;87.10;;;;;;5079180;28;20028;-84
2023/08/21 07:50:10;;;;;;;3.63;0.60;;;22.30;87.10;;;;;;5097408;28;20097;-85
2023/08/21 07:52:36;;;;;;;3.17;0.80;;;22.40;86.80;;;;;;5079389;28;20039;-86
2023/08/21 07:55:02;;;;;;;4.75;0.85;;;22.50;86.30;;;;;;5096742;28;20032;-84
2023/08/21 07:57:29;;;;;;;3.65;0.95;;;22.60;86.50;;;;;;5096893;28;20484;-84
2023/08/21 07:59:55;;;;;;;2.22;0.40;;;22.60;86.50;;;;;;5090127;28;20028;-86
2023/08/21 08:02:21;;;;;;;4.40;0.68;;;22.70;86.30;;;;;;5079999;28;20032;-86
2023/08/21 08:04:46;;;;;;;6.88;0.75;;;22.80;86.40;;;;;;5077329;28;20032;-87
2023/08/21 08:07:12;;;;;;;2.45;0.50;;;22.80;86.00;;;;;;5082492;28;20069;-87
2023/08/21 08:09:38;;;;;;;4.40;0.52;;;22.90;85.30;;;;;;5039776;28;20393;-86
2023/08/21 08:12:05;;;;;;;5.15;1.05;;;23.00;84.30;;;;;;5058508;28;20070;-86
2023/08/21 08:14:30;;;;;;;7.10;0.88;;;23.10;84.10;;;;;;5076231;28;20380;-85
2023/08/21 08:16:56;;;;;;;4.75;0.50;;;23.20;83.60;;;;;;5058946;28;20064;-86
2023/08/21 08:19:22;;;;;;;4.35;0.55;;;23.30;83.30;;;;;;5061033;28;20056;-86
2023/08/21 08:21:47;;;;;;;3.20;0.50;;;23.20;83.00;;;;;;5025429;28;20074;-86
2023/08/21 08:24:13;;;;;;;6.15;0.60;;;23.30;83.30;;;;;;5076589;28;20465;-86
2023/08/21 08:26:39;;;;;;;3.42;0.50;;;23.30;83.30;;;;;;5059134;28;20028;-87
2023/08/21 08:29:07;;;;;;;3.08;0.70;;;23.30;83.10;;;;;;5041835;28;20029;-87
2023/08/21 08:31:33;;;;;;;4.65;0.65;;;23.40;82.10;;;;;;5027421;28;20070;-87
2023/08/21 08:33:59;;;;;;;6.03;0.80;;;23.60;81.20;;;;;;5058428;28;20111;-87
2023/08/21 08:36:24;;;;;;;4.25;0.63;;;23.60;80.20;;;;;;5058295;28;20045;-87
2023/08/21 08:38:50;;;;;;;4.63;0.60;;;23.60;79.40;;;;;;5042083;28;20034;-87
2023/08/21 08:42:06;;;;;;;5.55;0.77;;;23.70;78.60;;;;;;5043459;28;20466;-88
2023/08/21 11:47:58;;;;;;;3.53;0.60;;;34.00;49.10;;;;;;5061613;28;20079;-94
2023/08/21 11:50:25;;;;;;;3.42;0.60;;;34.00;49.40;;;;;;5062249;28;20055;-91
2023/08/21 11:53:10;;;;;;;4.00;0.50;;;34.10;48.90;;;;;;5043160;28;20013;-95
2023/08/21 11:55:36;;;;;;;3.17;0.60;;;34.10;48.00;;;;;;5049197;28;20021;-95
2023/08/21 11:58:02;;;;;;;5.47;0.80;;;34.20;48.30;;;;;;5047198;28;20040;-95
2023/08/21 12:00:29;;;;;;;2.40;0.60;;;34.30;48.00;;;;;;5053201;28;20037;-92
2023/08/21 12:02:57;;;;;;;2.97;0.45;;;34.30;47.80;;;;;;5055310;28;20079;-96
2023/08/21 12:05:27;;;;;;;3.90;0.70;;;34.40;47.50;;;;;;5050039;28;20017;-96
2023/08/21 12:07:53;;;;;;;2.97;0.55;;;34.50;47.20;;;;;;5048334;28;20492;-96
2023/08/21 12:10:26;;;;;;;4.55;0.82;;;34.50;47.00;;;;;;5033498;28;20100;-95
2023/08/21 12:12:52;;;;;;;3.63;0.65;;;34.60;47.00;;;;;;5030902;28;20040;-95
2023/08/21 12:15:19;;;;;;;5.15;0.68;;;34.80;47.00;;;;;;5048650;28;20029;-96
2023/08/21 12:17:45;;;;;;;3.08;0.60;;;34.80;46.60;;;;;;5053064;28;20033;-96
2023/08/21 12:20:11;;;;;;;2.65;0.60;;;34.90;46.50;;;;;;5058941;28;20067;-96
2023/08/21 12:22:38;;;;;;;3.58;0.60;;;35.10;46.40;;;;;;5051703;28;20079;-95
2023/08/21 12:25:08;;;;;;;3.22;0.55;;;35.20;46.20;;;;;;5055506;28;20021;-96
2023/08/21 12:27:34;;;;;;;2.53;0.40;;;35.20;45.90;;;;;;5049093;28;20043;-94
2023/08/21 12:30:00;;;;;;;3.20;0.60;;;35.10;45.60;;;;;;5048976;28;20088;-95
2023/08/21 12:32:26;;;;;;;2.03;0.50;;;35.20;45.40;;;;;;5032490;28;20079;-94
2023/08/21 12:34:52;;;;;;;2.78;0.50;;;35.20;45.20;;;;;;5063971;28;20469;-95
2023/08/21 12:37:17;;;;;;;3.05;0.40;;;35.40;45.00;;;;;;5052032;28;20052;-96
2023/08/21 12:39:43;;;;;;;3.47;0.52;;;35.50;44.80;;;;;;5014925;28;20040;-96
2023/08/21 12:42:09;;;;;;;3.55;0.55;;;35.60;44.60;;;;;;5047775;28;20029;-96
2023/08/21 12:44:34;;;;;;;3.85;0.55;;;35.70;44.40;;;;;;5051398;28;20028;-95
2023/08/21 12:47:00;;;;;;;1.60;0.50;;;35.90;44.30;;;;;;5039651;28;20029;-95
2023/08/21 12:49:26;;;;;;;2.40;0.50;;;36.00;44.30;;;;;;5044383;28;20025;-96
2023/08/21 12:51:52;;;;;;;1.70;0.40;;;36.10;44.20;;;;;;5046035;28;20013;-94
2023/08/21 12:54:18;;;;;;;1.38;0.30;;;36.20;44.20;;;;;;5069613;28;20017;-95
2023/08/21 12:56:46;;;;;;;3.28;0.40;;;36.30;44.10;;;;;;5036466;28;20056;-95
2023/08/21 12:59:13;;;;;;;4.13;0.60;;;36.50;44.00;;;;;;5051511;28;20024;-94
2023/08/21 13:01:39;;;;;;;3.22;0.68;;;36.60;43.60;;;;;;5015370;28;20021;-96
2023/08/21 13:04:05;;;;;;;2.05;0.50;;;36.80;43.40;;;;;;5046735;28;20485;-95
2023/08/21 13:06:30;;;;;;;2.35;0.60;;;36.90;43.20;;;;;;5066447;28;20047;-96
2023/08/21 13:08:56;;;;;;;1.92;0.60;;;37.00;43.10;;;;;;5029476;28;20028;-95
2023/08/21 13:11:22;;;;;;;3.25;0.50;;;37.20;43.00;;;;;;5030942;28;20021;-94
2023/08/21 13:13:48;;;;;;;2.42;0.55;;;37.30;42.70;;;;;;5047614;28;20517;-96
2023/08/21 13:16:14;;;;;;;2.42;0.63;;;37.40;42.50;;;;;;5047398;28;20037;-96
2023/08/21 13:18:40;;;;;;;2.47;0.55;;;37.50;42.40;;;;;;5064338;28;20376;-95
2023/08/21 13:21:05;;;;;;;3.47;0.47;;;37.60;42.90;;;;;;5049375;28;20017;-96
2023/08/21 13:23:33;;;;;;;3.38;0.65;;;37.70;42.40;;;;;;5072699;28;20035;-94
2023/08/21 13:25:59;;;;;;;3.72;0.60;;;37.80;42.40;;;;;;5051669;28;20063;-96
2023/08/21 13:28:25;;;;;;;4.80;0.75;;;37.80;42.10;;;;;;5052235;28;20628;-96
2023/08/21 13:30:52;;;;;;;4.53;0.65;;;37.60;42.20;;;;;;5084824;28;20024;-96
2023/08/21 13:33:18;;;;;;;3.30;0.55;;;37.60;42.10;;;;;;5060494;28;20024;-95
2023/08/21 13:35:47;;;;;;;2.67;0.60;;;37.50;41.90;;;;;;5068725;28;20492;-91
2023/08/21 13:38:13;;;;;;;4.15;0.60;;;37.30;41.60;;;;;;5057735;28;20060;-96
2023/08/21 13:40:40;;;;;;;4.13;0.40;;;37.30;41.50;;;;;;5080015;28;20538;-94
2023/08/21 13:43:07;;;;;;;3.80;0.60;;;37.20;41.20;;;;;;5076431;28;20029;-96
2023/08/21 13:45:33;;;;;;;3.42;0.50;;;36.90;40.90;;;;;;5053104;28;20029;-95
2023/08/21 13:47:59;;;;;;;2.22;0.50;;;36.70;41.30;;;;;;5044984;28;20017;-92
2023/08/21 13:50:24;;;;;;;1.30;0.40;;;36.70;41.40;;;;;;5053728;28;20051;-93
2023/08/21 13:52:50;;;;;;;1.67;0.50;;;36.80;41.50;;;;;;5056672;28;20053;-92
2023/08/21 13:55:16;;;;;;;1.48;0.40;;;37.00;42.20;;;;;;5034323;28;20051;-93
2023/08/21 13:57:42;;;;;;;2.15;0.30;;;37.20;41.20;;;;;;5050039;28;20045;-93
2023/08/21 14:00:12;;;;;;;0.93;0.30;;;37.30;40.80;;;;;;5059146;28;20044;-94
2023/08/21 14:02:40;;;;;;;2.10;0.35;;;37.50;40.40;;;;;;5076291;28;20024;-93
2023/08/21 14:05:07;;;;;;;1.52;0.30;;;37.70;40.10;;;;;;5060640;28;20031;-91
2023/08/21 14:07:39;;;;;;;1.95;0.40;;;37.80;39.80;;;;;;5026650;28;20436;-88
2023/08/21 14:10:05;;;;;;;2.00;0.40;;;38.00;39.50;;;;;;5047844;28;20041;-93
2023/08/21 14:12:31;;;;;;;2.80;0.40;;;38.20;39.40;;;;;;5064583;28;20521;-92
2023/08/21 14:14:58;;;;;;;2.63;0.50;;;38.30;39.10;;;;;;5034232;28;20071;-92
2023/08/21 14:17:28;;;;;;;4.63;0.43;;;38.40;38.80;;;;;;5053828;28;20033;-89
2023/08/21 14:19:54;;;;;;;1.63;0.40;;;38.50;38.50;;;;;;5037433;28;20020;-91
2023/08/21 14:22:25;;;;;;;1.13;0.30;;;38.70;38.50;;;;;;5043295;28;20020;-93
2023/08/21 14:24:51;;;;;;;2.80;0.57;;;38.90;38.30;;;;;;5064034;28;20029;-91
2023/08/21 14:27:17;;;;;;;2.85;0.30;;;39.00;38.30;;;;;;5038957;28;20924;-90
2023/08/21 14:29:43;;;;;;;1.60;0.35;;;39.10;38.00;;;;;;5033793;28;20031;-91
2023/08/21 14:32:09;;;;;;;2.08;0.30;;;39.20;37.70;;;;;;5068795;28;20020;-90
2023/08/21 14:34:35;;;;;;;1.02;0.20;;;39.30;37.60;;;;;;5087211;28;20032;-92
2023/08/21 14:37:03;;;;;;;2.03;0.30;;;39.40;37.30;;;;;;5041277;28;20045;-89
2023/08/21 14:39:29;;;;;;;1.05;0.20;;;39.50;37.20;;;;;;5078561;28;20031;-89
2023/08/21 14:41:59;;;;;;;2.97;0.40;;;39.60;37.30;;;;;;5022204;28;20119;-90
2023/08/21 14:44:25;;;;;;;1.45;0.35;;;39.60;36.90;;;;;;5077295;28;20047;-92
2023/08/21 14:46:53;;;;;;;1.45;0.30;;;39.70;36.80;;;;;;5040219;28;20029;-91
2023/08/21 14:49:18;;;;;;;1.70;0.40;;;39.70;36.70;;;;;;5053872;28;20048;-89
2023/08/21 14:51:44;;;;;;;1.27;0.25;;;39.80;36.60;;;;;;5046272;28;20064;-89
2023/08/21 14:54:10;;;;;;;2.22;0.38;;;39.80;36.40;;;;;;5063519;28;20047;-89
2023/08/21 14:56:36;;;;;;;3.00;0.40;;;39.80;36.30;;;;;;5052663;28;20052;-89
2023/08/21 14:59:02;;;;;;;2.75;0.30;;;39.90;36.20;;;;;;5032832;28;20100;-88
2023/08/21 15:01:28;;;;;;;1.58;0.30;;;40.00;36.20;;;;;;5063388;28;20032;-90
2023/08/21 15:03:53;;;;;;;3.42;0.63;;;40.10;36.30;;;;;;5036755;28;20029;-89
2023/08/21 15:06:19;;;;;;;2.72;0.50;;;40.10;36.20;;;;;;5046054;28;20054;-88
2023/08/21 15:08:45;;;;;;;1.20;0.20;;;40.20;36.20;;;;;;5070477;28;20064;-88
2023/08/21 15:11:11;;;;;;;4.82;0.32;;;40.30;36.10;;;;;;5068813;28;20475;-89
2023/08/21 15:13:40;;;;;;;0.65;0.30;;;40.40;36.00;;;;;;5050248;28;20029;-87
2023/08/21 15:16:06;;;;;;;1.27;0.35;;;40.40;35.90;;;;;;5049936;28;20035;-90
2023/08/21 15:18:32;;;;;;;4.47;0.38;;;40.20;35.90;;;;;;5040645;28;20111;-89
2023/08/21 15:20:58;;;;;;;1.35;0.32;;;40.00;36.00;;;;;;5045581;28;20027;-87
2023/08/21 15:23:24;;;;;;;1.33;0.22;;;39.70;36.20;;;;;;5060977;28;20020;-90
2023/08/21 15:25:51;;;;;;;1.67;0.35;;;39.50;36.40;;;;;;5049015;28;20535;-90
2023/08/21 15:28:17;;;;;;;1.25;0.30;;;39.20;36.50;;;;;;5045920;28;20021;-89
2023/08/21 15:30:42;;;;;;;2.67;0.40;;;38.80;36.50;;;;;;5048497;28;20059;-89
2023/08/21 15:33:08;;;;;;;2.33;0.30;;;38.50;36.70;;;;;;5051082;28;20167;-89
2023/08/21 15:35:33;;;;;;;1.30;0.40;;;38.20;36.70;;;;;;5051267;28;20028;-91
2023/08/21 15:37:59;;;;;;;0.98;0.30;;;37.90;36.60;;;;;;5057662;28;20039;-89
2023/08/21 15:40:25;;;;;;;1.40;0.32;;;37.50;36.70;;;;;;5052288;28;20032;-86
2023/08/21 15:42:50;;;;;;;2.28;0.32;;;37.10;37.00;;;;;;5049288;28;20032;-88
2023/08/21 15:45:16;;;;;;;1.52;0.30;;;36.70;37.30;;;;;;5025174;28;20405;-91